sensor_id;sensor_type;location;lat;lon;timestamp;temperature;humidity
3186;DHT22;1604;53.700;10.252;2022-07-22T00:02:32;19.20;99.90
3186;DHT22;1604;53.700;10.252;2022-07-22T00:05:34;19.20;99.90
3186;DHT22;1604;53.700;10.252;2022-07-22T00:08:36;19.20;99.90
3186;DHT22;1604;53.700;10.252;2022-07-22T00:11:38;19.20;99.90
3186;DHT22;1604;53.700;10.252;2022-07-22T00:14:40;19.20;99.90
3186;DHT22;1604;53.700;10.252;2022-07-22T00:17:43;19.20;99.90
3186;DHT22;1604;53.700;10.252;2022-07-22T00:20:45;19.20;99.90
3186;DHT22;1604;53.700;10.252;2022-07-22T00:23:47;19.20;99.90
3186;DHT22;1604;53.700;10.252;2022-07-22T00:26:49;19.20;99.90
3186;DHT22;1604;53.700;10.252;2022-07-22T00:29:51;19.20;99.90
3186;DHT22;1604;53.700;10.252;2022-07-22T00:32:54;19.20;99.90
3186;DHT22;1604;53.700;10.252;2022-07-22T00:35:56;19.20;99.90
3186;DHT22;1604;53.700;10.252;2022-07-22T00:38:58;19.20;99.90
3186;DHT22;1604;53.700;10.252;2022-07-22T00:42:00;19.20;99.90
3186;DHT22;1604;53.700;10.252;2022-07-22T00:45:04;19.10;99.90
3186;DHT22;1604;53.700;10.252;2022-07-22T00:48:08;19.20;99.90
3186;DHT22;1604;53.700;10.252;2022-07-22T00:51:10;19.10;99.90
3186;DHT22;1604;53.700;10.252;2022-07-22T00:54:12;19.10;99.90
3186;DHT22;1604;53.700;10.252;2022-07-22T00:57:14;19.10;99.90
3186;DHT22;1604;53.700;10.252;2022-07-22T01:00:19;18.90;99.90
3186;DHT22;1604;53.700;10.252;2022-07-22T01:03:22;18.80;99.90
3186;DHT22;1604;53.700;10.252;2022-07-22T01:06:24;18.70;99.90
3186;DHT22;1604;53.700;10.252;2022-07-22T01:09:26;18.60;99.90
3186;DHT22;1604;53.700;10.252;2022-07-22T01:12:28;18.50;99.90
3186;DHT22;1604;53.700;10.252;2022-07-22T01:15:30;18.40;99.90
3186;DHT22;1604;53.700;10.252;2022-07-22T01:18:35;18.40;99.90
3186;DHT22;1604;53.700;10.252;2022-07-22T01:21:39;18.30;99.90
3186;DHT22;1604;53.700;10.252;2022-07-22T01:24:41;18.20;99.90
3186;DHT22;1604;53.700;10.252;2022-07-22T01:27:42;18.20;99.90
3186;DHT22;1604;53.700;10.252;2022-07-22T01:30:44;18.10;99.90
3186;DHT22;1604;53.700;10.252;2022-07-22T01:33:46;18.00;99.90
3186;DHT22;1604;53.700;10.252;2022-07-22T01:36:49;18.00;99.90
3186;DHT22;1604;53.700;10.252;2022-07-22T01:39:51;17.90;99.90
3186;DHT22;1604;53.700;10.252;2022-07-22T01:42:53;17.70;99.90
3186;DHT22;1604;53.700;10.252;2022-07-22T01:45:55;17.50;99.90
3186;DHT22;1604;53.700;10.252;2022-07-22T01:48:57;17.40;99.90
3186;DHT22;1604;53.700;10.252;2022-07-22T01:52:01;17.20;99.90
3186;DHT22;1604;53.700;10.252;2022-07-22T01:55:04;17.10;99.90
3186;DHT22;1604;53.700;10.252;2022-07-22T01:58:06;17.00;99.90
3186;DHT22;1604;53.700;10.252;2022-07-22T02:01:08;16.90;99.90
3186;DHT22;1604;53.700;10.252;2022-07-22T02:04:10;16.80;99.90
3186;DHT22;1604;53.700;10.252;2022-07-22T02:07:13;16.70;99.90
3186;DHT22;1604;53.700;10.252;2022-07-22T02:10:15;16.60;99.90
3186;DHT22;1604;53.700;10.252;2022-07-22T02:13:17;16.50;99.90
3186;DHT22;1604;53.700;10.252;2022-07-22T02:16:19;16.50;99.90
3186;DHT22;1604;53.700;10.252;2022-07-22T02:19:21;16.50;99.90
3186;DHT22;1604;53.700;10.252;2022-07-22T02:22:24;16.50;99.90
3186;DHT22;1604;53.700;10.252;2022-07-22T02:25:26;16.40;99.90
3186;DHT22;1604;53.700;10.252;2022-07-22T02:28:28;16.40;99.90
3186;DHT22;1604;53.700;10.252;2022-07-22T02:31:30;16.30;99.90
3186;DHT22;1604;53.700;10.252;2022-07-22T02:34:32;16.20;99.90
3186;DHT22;1604;53.700;10.252;2022-07-22T02:37:35;16.20;99.90
3186;DHT22;1604;53.700;10.252;2022-07-22T02:40:38;16.20;99.90
3186;DHT22;1604;53.700;10.252;2022-07-22T02:43:40;16.10;99.90
3186;DHT22;1604;53.700;10.252;2022-07-22T02:46:42;16.10;99.90
3186;DHT22;1604;53.700;10.252;2022-07-22T02:49:43;16.10;99.90
3186;DHT22;1604;53.700;10.252;2022-07-22T02:52:47;16.10;99.90
3186;DHT22;1604;53.700;10.252;2022-07-22T02:55:55;16.00;99.90
3186;DHT22;1604;53.700;10.252;2022-07-22T02:58:57;16.00;99.90
3186;DHT22;1604;53.700;10.252;2022-07-22T03:01:59;15.90;99.90
3186;DHT22;1604;53.700;10.252;2022-07-22T03:05:01;15.90;99.90
3186;DHT22;1604;53.700;10.252;2022-07-22T03:08:05;15.80;99.90
3186;DHT22;1604;53.700;10.252;2022-07-22T03:11:06;15.70;99.90
3186;DHT22;1604;53.700;10.252;2022-07-22T03:14:08;15.70;99.90
3186;DHT22;1604;53.700;10.252;2022-07-22T03:17:10;15.70;99.90
3186;DHT22;1604;53.700;10.252;2022-07-22T03:20:12;15.70;99.90
3186;DHT22;1604;53.700;10.252;2022-07-22T03:23:15;15.60;99.90
3186;DHT22;1604;53.700;10.252;2022-07-22T03:26:17;15.60;99.90
3186;DHT22;1604;53.700;10.252;2022-07-22T03:29:19;15.60;99.90
3186;DHT22;1604;53.700;10.252;2022-07-22T03:32:21;15.60;99.90
3186;DHT22;1604;53.700;10.252;2022-07-22T03:35:23;15.60;99.90
3186;DHT22;1604;53.700;10.252;2022-07-22T03:38:26;15.60;99.90
3186;DHT22;1604;53.700;10.252;2022-07-22T03:41:28;15.60;99.90
3186;DHT22;1604;53.700;10.252;2022-07-22T03:44:30;15.50;99.90
3186;DHT22;1604;53.700;10.252;2022-07-22T03:47:32;15.50;99.90
3186;DHT22;1604;53.700;10.252;2022-07-22T03:50:34;15.50;99.90
3186;DHT22;1604;53.700;10.252;2022-07-22T03:53:37;15.50;99.90
3186;DHT22;1604;53.700;10.252;2022-07-22T03:56:39;15.50;99.90
3186;DHT22;1604;53.700;10.252;2022-07-22T03:59:41;15.50;99.90
3186;DHT22;1604;53.700;10.252;2022-07-22T04:02:43;15.50;99.90
3186;DHT22;1604;53.700;10.252;2022-07-22T04:05:44;15.50;99.90
3186;DHT22;1604;53.700;10.252;2022-07-22T04:08:48;15.60;99.90
3186;DHT22;1604;53.700;10.252;2022-07-22T04:11:50;15.60;99.90
3186;DHT22;1604;53.700;10.252;2022-07-22T04:14:52;15.60;99.90
3186;DHT22;1604;53.700;10.252;2022-07-22T04:17:54;15.50;99.90
3186;DHT22;1604;53.700;10.252;2022-07-22T04:20:56;15.50;99.90
3186;DHT22;1604;53.700;10.252;2022-07-22T04:23:59;15.50;99.90
3186;DHT22;1604;53.700;10.252;2022-07-22T04:27:01;15.60;99.90
3186;DHT22;1604;53.700;10.252;2022-07-22T04:30:03;15.50;99.90
3186;DHT22;1604;53.700;10.252;2022-07-22T04:33:05;15.50;99.90
3186;DHT22;1604;53.700;10.252;2022-07-22T04:36:07;15.50;99.90
3186;DHT22;1604;53.700;10.252;2022-07-22T04:39:11;15.50;99.90
3186;DHT22;1604;53.700;10.252;2022-07-22T04:42:13;15.50;99.90
3186;DHT22;1604;53.700;10.252;2022-07-22T04:45:14;15.50;99.90
3186;DHT22;1604;53.700;10.252;2022-07-22T04:48:17;15.50;99.90
3186;DHT22;1604;53.700;10.252;2022-07-22T04:51:19;15.50;99.90
3186;DHT22;1604;53.700;10.252;2022-07-22T04:54:22;15.50;99.90
3186;DHT22;1604;53.700;10.252;2022-07-22T04:57:24;15.50;99.90
3186;DHT22;1604;53.700;10.252;2022-07-22T05:00:26;15.50;99.90
3186;DHT22;1604;53.700;10.252;2022-07-22T05:03:28;15.50;99.90
3186;DHT22;1604;53.700;10.252;2022-07-22T05:06:30;15.50;99.90
3186;DHT22;1604;53.700;10.252;2022-07-22T05:09:33;15.60;99.90
3186;DHT22;1604;53.700;10.252;2022-07-22T05:12:35;15.60;99.90
3186;DHT22;1604;53.700;10.252;2022-07-22T05:15:37;15.60;99.90
3186;DHT22;1604;53.700;10.252;2022-07-22T05:18:39;15.60;99.90
3186;DHT22;1604;53.700;10.252;2022-07-22T05:21:41;15.60;99.90
3186;DHT22;1604;53.700;10.252;2022-07-22T05:24:44;15.60;99.90
3186;DHT22;1604;53.700;10.252;2022-07-22T05:27:50;15.60;99.90
3186;DHT22;1604;53.700;10.252;2022-07-22T05:30:52;15.50;99.90
3186;DHT22;1604;53.700;10.252;2022-07-22T05:33:54;15.50;99.90
3186;DHT22;1604;53.700;10.252;2022-07-22T05:36:56;15.50;99.90
3186;DHT22;1604;53.700;10.252;2022-07-22T05:39:59;15.50;99.90
3186;DHT22;1604;53.700;10.252;2022-07-22T05:43:01;15.50;99.90
3186;DHT22;1604;53.700;10.252;2022-07-22T05:46:03;15.50;99.90
3186;DHT22;1604;53.700;10.252;2022-07-22T05:49:05;15.50;99.90
3186;DHT22;1604;53.700;10.252;2022-07-22T05:52:06;15.60;99.90
3186;DHT22;1604;53.700;10.252;2022-07-22T05:55:10;15.60;99.90
3186;DHT22;1604;53.700;10.252;2022-07-22T05:58:12;15.60;99.90
3186;DHT22;1604;53.700;10.252;2022-07-22T06:01:14;15.60;99.90
3186;DHT22;1604;53.700;10.252;2022-07-22T06:04:16;15.70;99.90
3186;DHT22;1604;53.700;10.252;2022-07-22T06:07:18;15.70;99.90
3186;DHT22;1604;53.700;10.252;2022-07-22T06:10:21;15.70;99.90
3186;DHT22;1604;53.700;10.252;2022-07-22T06:13:23;15.70;99.90
3186;DHT22;1604;53.700;10.252;2022-07-22T06:16:25;15.70;99.90
3186;DHT22;1604;53.700;10.252;2022-07-22T06:19:27;15.80;99.90
3186;DHT22;1604;53.700;10.252;2022-07-22T06:22:29;15.80;99.90
3186;DHT22;1604;53.700;10.252;2022-07-22T06:25:33;15.90;99.90
3186;DHT22;1604;53.700;10.252;2022-07-22T06:28:34;15.90;99.90
3186;DHT22;1604;53.700;10.252;2022-07-22T06:31:36;16.00;99.90
3186;DHT22;1604;53.700;10.252;2022-07-22T06:34:38;16.00;99.90
3186;DHT22;1604;53.700;10.252;2022-07-22T06:37:47;16.10;99.90
3186;DHT22;1604;53.700;10.252;2022-07-22T06:40:50;16.10;99.90
3186;DHT22;1604;53.700;10.252;2022-07-22T06:43:52;16.20;99.90
3186;DHT22;1604;53.700;10.252;2022-07-22T06:46:54;16.40;99.90
3186;DHT22;1604;53.700;10.252;2022-07-22T06:49:56;16.50;99.90
3186;DHT22;1604;53.700;10.252;2022-07-22T06:52:58;16.50;99.90
3186;DHT22;1604;53.700;10.252;2022-07-22T06:56:01;16.60;99.90
3186;DHT22;1604;53.700;10.252;2022-07-22T06:59:03;16.60;99.90
3186;DHT22;1604;53.700;10.252;2022-07-22T07:02:05;16.70;99.90
3186;DHT22;1604;53.700;10.252;2022-07-22T07:05:07;16.70;99.90
3186;DHT22;1604;53.700;10.252;2022-07-22T07:08:10;16.80;99.90
3186;DHT22;1604;53.700;10.252;2022-07-22T07:11:14;16.90;99.90
3186;DHT22;1604;53.700;10.252;2022-07-22T07:14:16;17.00;99.90
3186;DHT22;1604;53.700;10.252;2022-07-22T07:17:17;17.10;99.90
3186;DHT22;1604;53.700;10.252;2022-07-22T07:20:20;17.20;99.90
3186;DHT22;1604;53.700;10.252;2022-07-22T07:23:22;17.40;99.90
3186;DHT22;1604;53.700;10.252;2022-07-22T07:26:25;17.50;99.90
3186;DHT22;1604;53.700;10.252;2022-07-22T07:29:27;17.60;99.90
3186;DHT22;1604;53.700;10.252;2022-07-22T07:32:29;17.70;99.90
3186;DHT22;1604;53.700;10.252;2022-07-22T07:35:30;17.90;99.70
3186;DHT22;1604;53.700;10.252;2022-07-22T07:38:32;18.10;99.70
3186;DHT22;1604;53.700;10.252;2022-07-22T07:41:37;18.20;99.40
3186;DHT22;1604;53.700;10.252;2022-07-22T07:44:39;18.20;99.40
3186;DHT22;1604;53.700;10.252;2022-07-22T07:47:41;18.20;99.30
3186;DHT22;1604;53.700;10.252;2022-07-22T07:50:43;18.20;99.20
3186;DHT22;1604;53.700;10.252;2022-07-22T07:53:45;18.20;99.20
3186;DHT22;1604;53.700;10.252;2022-07-22T07:56:48;18.20;99.20
3186;DHT22;1604;53.700;10.252;2022-07-22T07:59:50;18.10;99.20
3186;DHT22;1604;53.700;10.252;2022-07-22T08:02:52;18.10;99.40
3186;DHT22;1604;53.700;10.252;2022-07-22T08:05:55;18.00;99.40
3186;DHT22;1604;53.700;10.252;2022-07-22T08:08:58;18.00;99.40
3186;DHT22;1604;53.700;10.252;2022-07-22T08:12:01;17.80;99.60
3186;DHT22;1604;53.700;10.252;2022-07-22T08:15:04;17.80;99.60
3186;DHT22;1604;53.700;10.252;2022-07-22T08:18:06;17.70;99.60
3186;DHT22;1604;53.700;10.252;2022-07-22T08:21:10;17.60;99.80
3186;DHT22;1604;53.700;10.252;2022-07-22T08:24:12;17.70;99.60
3186;DHT22;1604;53.700;10.252;2022-07-22T08:27:15;17.60;99.70
3186;DHT22;1604;53.700;10.252;2022-07-22T08:30:18;17.70;99.60
3186;DHT22;1604;53.700;10.252;2022-07-22T08:33:20;17.80;99.80
3186;DHT22;1604;53.700;10.252;2022-07-22T08:36:22;17.90;99.70
3186;DHT22;1604;53.700;10.252;2022-07-22T08:39:24;18.10;99.30
3186;DHT22;1604;53.700;10.252;2022-07-22T08:42:27;18.20;99.00
3186;DHT22;1604;53.700;10.252;2022-07-22T08:45:30;18.40;99.00
3186;DHT22;1604;53.700;10.252;2022-07-22T08:48:31;18.40;98.90
3186;DHT22;1604;53.700;10.252;2022-07-22T08:51:33;18.50;98.60
3186;DHT22;1604;53.700;10.252;2022-07-22T08:54:35;18.50;98.40
3186;DHT22;1604;53.700;10.252;2022-07-22T08:57:53;18.50;98.40
3186;DHT22;1604;53.700;10.252;2022-07-22T09:01:07;18.50;98.50
3186;DHT22;1604;53.700;10.252;2022-07-22T09:04:09;18.60;98.30
3186;DHT22;1604;53.700;10.252;2022-07-22T09:07:11;18.70;97.90
3186;DHT22;1604;53.700;10.252;2022-07-22T09:10:16;18.80;98.00
3186;DHT22;1604;53.700;10.252;2022-07-22T09:13:23;19.00;97.70
3186;DHT22;1604;53.700;10.252;2022-07-22T09:16:39;19.20;97.10
3186;DHT22;1604;53.700;10.252;2022-07-22T09:19:41;19.20;97.00
3186;DHT22;1604;53.700;10.252;2022-07-22T09:22:45;19.20;96.90
3186;DHT22;1604;53.700;10.252;2022-07-22T09:25:47;19.10;96.90
3186;DHT22;1604;53.700;10.252;2022-07-22T09:28:55;19.10;97.10
3186;DHT22;1604;53.700;10.252;2022-07-22T09:31:57;19.00;97.30
3186;DHT22;1604;53.700;10.252;2022-07-22T09:35:02;19.00;97.50
3186;DHT22;1604;53.700;10.252;2022-07-22T09:38:05;19.00;97.30
3186;DHT22;1604;53.700;10.252;2022-07-22T09:41:08;19.10;97.20
3186;DHT22;1604;53.700;10.252;2022-07-22T09:44:26;19.10;97.50
3186;DHT22;1604;53.700;10.252;2022-07-22T09:47:29;19.20;97.50
3186;DHT22;1604;53.700;10.252;2022-07-22T09:50:32;19.20;97.30
3186;DHT22;1604;53.700;10.252;2022-07-22T09:53:34;19.10;96.50
3186;DHT22;1604;53.700;10.252;2022-07-22T09:56:37;19.10;96.30
3186;DHT22;1604;53.700;10.252;2022-07-22T09:59:40;19.20;95.90
3186;DHT22;1604;53.700;10.252;2022-07-22T10:02:46;19.20;96.00
3186;DHT22;1604;53.700;10.252;2022-07-22T10:05:48;19.30;96.00
3186;DHT22;1604;53.700;10.252;2022-07-22T10:08:51;19.30;95.60
3186;DHT22;1604;53.700;10.252;2022-07-22T10:11:54;19.30;95.10
3186;DHT22;1604;53.700;10.252;2022-07-22T10:14:58;19.40;95.40
3186;DHT22;1604;53.700;10.252;2022-07-22T10:18:02;19.50;93.70
3186;DHT22;1604;53.700;10.252;2022-07-22T10:21:08;19.60;94.20
3186;DHT22;1604;53.700;10.252;2022-07-22T10:24:13;19.70;94.10
3186;DHT22;1604;53.700;10.252;2022-07-22T10:27:44;19.70;93.50
3186;DHT22;1604;53.700;10.252;2022-07-22T10:30:48;19.60;93.50
3186;DHT22;1604;53.700;10.252;2022-07-22T10:33:51;19.50;94.70
3186;DHT22;1604;53.700;10.252;2022-07-22T10:36:53;19.50;95.30
3186;DHT22;1604;53.700;10.252;2022-07-22T10:40:10;19.50;95.50
3186;DHT22;1604;53.700;10.252;2022-07-22T10:43:13;19.70;95.40
3186;DHT22;1604;53.700;10.252;2022-07-22T10:46:17;19.70;95.30
3186;DHT22;1604;53.700;10.252;2022-07-22T10:49:20;19.80;94.00
3186;DHT22;1604;53.700;10.252;2022-07-22T10:52:33;19.90;93.60
3186;DHT22;1604;53.700;10.252;2022-07-22T10:55:36;19.90;93.50
3186;DHT22;1604;53.700;10.252;2022-07-22T10:58:45;19.90;93.50
3186;DHT22;1604;53.700;10.252;2022-07-22T11:01:51;20.00;93.60
3186;DHT22;1604;53.700;10.252;2022-07-22T11:04:57;20.20;92.70
3186;DHT22;1604;53.700;10.252;2022-07-22T11:08:00;20.30;91.30
3186;DHT22;1604;53.700;10.252;2022-07-22T11:11:10;20.40;90.40
3186;DHT22;1604;53.700;10.252;2022-07-22T11:14:16;20.30;89.40
3186;DHT22;1604;53.700;10.252;2022-07-22T11:17:20;20.30;90.30
3186;DHT22;1604;53.700;10.252;2022-07-22T11:20:24;20.30;91.80
3186;DHT22;1604;53.700;10.252;2022-07-22T11:23:26;20.40;90.80
3186;DHT22;1604;53.700;10.252;2022-07-22T11:26:39;20.70;90.40
3186;DHT22;1604;53.700;10.252;2022-07-22T11:29:41;21.00;89.40
3186;DHT22;1604;53.700;10.252;2022-07-22T11:32:48;21.20;88.30
3186;DHT22;1604;53.700;10.252;2022-07-22T11:36:01;21.30;86.00
3186;DHT22;1604;53.700;10.252;2022-07-22T11:39:04;21.30;84.90
3186;DHT22;1604;53.700;10.252;2022-07-22T11:42:06;21.30;84.60
3186;DHT22;1604;53.700;10.252;2022-07-22T11:45:09;21.20;84.90
3186;DHT22;1604;53.700;10.252;2022-07-22T11:48:19;21.20;84.60
3186;DHT22;1604;53.700;10.252;2022-07-22T11:51:29;21.20;83.90
3186;DHT22;1604;53.700;10.252;2022-07-22T11:54:32;21.20;83.40
3186;DHT22;1604;53.700;10.252;2022-07-22T11:57:46;21.30;81.30
3186;DHT22;1604;53.700;10.252;2022-07-22T12:00:51;21.10;81.50
3186;DHT22;1604;53.700;10.252;2022-07-22T12:03:57;21.10;81.60
3186;DHT22;1604;53.700;10.252;2022-07-22T12:07:01;21.00;82.60
3186;DHT22;1604;53.700;10.252;2022-07-22T12:10:04;21.10;81.60
3186;DHT22;1604;53.700;10.252;2022-07-22T12:13:06;21.20;81.00
3186;DHT22;1604;53.700;10.252;2022-07-22T12:16:23;21.30;82.40
3186;DHT22;1604;53.700;10.252;2022-07-22T12:19:28;21.30;79.50
3186;DHT22;1604;53.700;10.252;2022-07-22T12:22:31;21.30;79.70
3186;DHT22;1604;53.700;10.252;2022-07-22T12:25:33;21.50;81.50
3186;DHT22;1604;53.700;10.252;2022-07-22T12:28:34;21.70;78.00
3186;DHT22;1604;53.700;10.252;2022-07-22T12:31:42;21.70;79.30
3186;DHT22;1604;53.700;10.252;2022-07-22T12:34:48;21.90;74.90
3186;DHT22;1604;53.700;10.252;2022-07-22T12:38:05;21.80;71.60
3186;DHT22;1604;53.700;10.252;2022-07-22T12:41:24;21.80;73.50
3186;DHT22;1604;53.700;10.252;2022-07-22T12:44:26;22.00;73.10
3186;DHT22;1604;53.700;10.252;2022-07-22T12:47:42;22.20;72.20
3186;DHT22;1604;53.700;10.252;2022-07-22T12:50:56;22.30;73.60
3186;DHT22;1604;53.700;10.252;2022-07-22T12:53:58;22.30;72.30
3186;DHT22;1604;53.700;10.252;2022-07-22T12:57:00;22.40;70.50
3186;DHT22;1604;53.700;10.252;2022-07-22T13:00:09;22.50;71.50
3186;DHT22;1604;53.700;10.252;2022-07-22T13:03:12;22.50;69.80
3186;DHT22;1604;53.700;10.252;2022-07-22T13:06:15;22.40;70.20
3186;DHT22;1604;53.700;10.252;2022-07-22T13:09:17;22.30;70.90
3186;DHT22;1604;53.700;10.252;2022-07-22T13:12:19;22.30;69.60
3186;DHT22;1604;53.700;10.252;2022-07-22T13:15:22;22.50;70.10
3186;DHT22;1604;53.700;10.252;2022-07-22T13:18:24;22.60;69.10
3186;DHT22;1604;53.700;10.252;2022-07-22T13:21:27;22.60;68.60
3186;DHT22;1604;53.700;10.252;2022-07-22T13:24:29;22.50;72.10
3186;DHT22;1604;53.700;10.252;2022-07-22T13:27:31;22.50;74.00
3186;DHT22;1604;53.700;10.252;2022-07-22T13:30:33;22.40;73.60
3186;DHT22;1604;53.700;10.252;2022-07-22T13:33:36;22.40;74.50
3186;DHT22;1604;53.700;10.252;2022-07-22T13:36:40;22.40;75.00
3186;DHT22;1604;53.700;10.252;2022-07-22T13:39:42;22.40;75.50
3186;DHT22;1604;53.700;10.252;2022-07-22T13:42:46;22.40;74.50
3186;DHT22;1604;53.700;10.252;2022-07-22T13:45:48;22.60;72.70
3186;DHT22;1604;53.700;10.252;2022-07-22T13:48:50;22.70;74.10
3186;DHT22;1604;53.700;10.252;2022-07-22T13:51:55;22.70;73.80
3186;DHT22;1604;53.700;10.252;2022-07-22T13:54:57;22.60;72.90
3186;DHT22;1604;53.700;10.252;2022-07-22T13:57:59;22.50;73.30
3186;DHT22;1604;53.700;10.252;2022-07-22T14:01:00;22.50;73.20
3186;DHT22;1604;53.700;10.252;2022-07-22T14:04:03;22.60;71.70
3186;DHT22;1604;53.700;10.252;2022-07-22T14:07:06;22.60;70.20
3186;DHT22;1604;53.700;10.252;2022-07-22T14:10:09;22.50;70.10
3186;DHT22;1604;53.700;10.252;2022-07-22T14:13:11;22.60;72.30
3186;DHT22;1604;53.700;10.252;2022-07-22T14:16:13;22.60;71.80
3186;DHT22;1604;53.700;10.252;2022-07-22T14:19:32;22.60;70.60
3186;DHT22;1604;53.700;10.252;2022-07-22T14:22:36;22.50;71.00
3186;DHT22;1604;53.700;10.252;2022-07-22T14:25:38;22.40;71.50
3186;DHT22;1604;53.700;10.252;2022-07-22T14:28:40;22.30;70.10
3186;DHT22;1604;53.700;10.252;2022-07-22T14:31:42;22.20;70.60
3186;DHT22;1604;53.700;10.252;2022-07-22T14:34:44;22.30;70.20
3186;DHT22;1604;53.700;10.252;2022-07-22T14:37:48;22.40;70.20
3186;DHT22;1604;53.700;10.252;2022-07-22T14:40:50;22.50;70.40
3186;DHT22;1604;53.700;10.252;2022-07-22T14:43:52;22.40;71.20
3186;DHT22;1604;53.700;10.252;2022-07-22T14:46:54;22.20;72.80
3186;DHT22;1604;53.700;10.252;2022-07-22T14:49:56;22.20;74.60
3186;DHT22;1604;53.700;10.252;2022-07-22T14:52:59;22.10;75.50
3186;DHT22;1604;53.700;10.252;2022-07-22T14:56:01;22.20;76.50
3186;DHT22;1604;53.700;10.252;2022-07-22T14:59:03;22.20;76.30
3186;DHT22;1604;53.700;10.252;2022-07-22T15:02:05;22.20;76.80
3186;DHT22;1604;53.700;10.252;2022-07-22T15:05:08;22.30;76.70
3186;DHT22;1604;53.700;10.252;2022-07-22T15:08:11;22.30;77.60
3186;DHT22;1604;53.700;10.252;2022-07-22T15:11:13;22.20;76.30
3186;DHT22;1604;53.700;10.252;2022-07-22T15:14:15;22.20;76.30
3186;DHT22;1604;53.700;10.252;2022-07-22T15:17:17;22.10;76.30
3186;DHT22;1604;53.700;10.252;2022-07-22T15:20:19;22.10;77.70
3186;DHT22;1604;53.700;10.252;2022-07-22T15:23:23;22.20;77.90
3186;DHT22;1604;53.700;10.252;2022-07-22T15:26:30;22.30;75.70
3186;DHT22;1604;53.700;10.252;2022-07-22T15:29:32;22.30;75.10
3186;DHT22;1604;53.700;10.252;2022-07-22T15:32:35;22.20;75.40
3186;DHT22;1604;53.700;10.252;2022-07-22T15:35:37;22.10;75.60
3186;DHT22;1604;53.700;10.252;2022-07-22T15:38:40;22.10;76.20
3186;DHT22;1604;53.700;10.252;2022-07-22T15:41:42;22.10;76.20
3186;DHT22;1604;53.700;10.252;2022-07-22T15:44:44;21.90;75.90
3186;DHT22;1604;53.700;10.252;2022-07-22T15:47:46;21.90;75.70
3186;DHT22;1604;53.700;10.252;2022-07-22T15:50:48;21.70;74.50
3186;DHT22;1604;53.700;10.252;2022-07-22T15:53:51;21.60;74.10
3186;DHT22;1604;53.700;10.252;2022-07-22T15:56:53;21.60;74.90
3186;DHT22;1604;53.700;10.252;2022-07-22T16:00:16;21.50;75.30
3186;DHT22;1604;53.700;10.252;2022-07-22T16:03:17;21.50;74.50
3186;DHT22;1604;53.700;10.252;2022-07-22T16:06:19;21.40;73.80
3186;DHT22;1604;53.700;10.252;2022-07-22T16:09:23;21.30;74.00
3186;DHT22;1604;53.700;10.252;2022-07-22T16:12:25;21.30;74.40
3186;DHT22;1604;53.700;10.252;2022-07-22T16:15:27;21.30;73.40
3186;DHT22;1604;53.700;10.252;2022-07-22T16:18:29;21.20;74.50
3186;DHT22;1604;53.700;10.252;2022-07-22T16:21:31;21.10;73.80
3186;DHT22;1604;53.700;10.252;2022-07-22T16:24:34;21.10;73.90
3186;DHT22;1604;53.700;10.252;2022-07-22T16:27:36;21.10;73.90
3186;DHT22;1604;53.700;10.252;2022-07-22T16:30:38;21.00;74.30
3186;DHT22;1604;53.700;10.252;2022-07-22T16:33:40;20.90;74.90
3186;DHT22;1604;53.700;10.252;2022-07-22T16:36:42;20.80;74.90
3186;DHT22;1604;53.700;10.252;2022-07-22T16:39:49;20.70;76.70
3186;DHT22;1604;53.700;10.252;2022-07-22T16:42:51;20.70;76.80
3186;DHT22;1604;53.700;10.252;2022-07-22T16:45:53;20.70;75.70
3186;DHT22;1604;53.700;10.252;2022-07-22T16:48:55;20.70;76.80
3186;DHT22;1604;53.700;10.252;2022-07-22T16:51:57;20.60;76.20
3186;DHT22;1604;53.700;10.252;2022-07-22T16:55:03;20.50;77.00
3186;DHT22;1604;53.700;10.252;2022-07-22T16:58:06;20.50;77.30
3186;DHT22;1604;53.700;10.252;2022-07-22T17:01:08;20.40;78.90
3186;DHT22;1604;53.700;10.252;2022-07-22T17:04:10;20.30;80.00
3186;DHT22;1604;53.700;10.252;2022-07-22T17:07:12;20.30;81.90
3186;DHT22;1604;53.700;10.252;2022-07-22T17:10:21;20.20;82.30
3186;DHT22;1604;53.700;10.252;2022-07-22T17:13:28;20.10;83.30
3186;DHT22;1604;53.700;10.252;2022-07-22T17:16:35;20.00;83.60
3186;DHT22;1604;53.700;10.252;2022-07-22T17:19:40;19.80;83.90
3186;DHT22;1604;53.700;10.252;2022-07-22T17:22:42;19.70;84.80
3186;DHT22;1604;53.700;10.252;2022-07-22T17:25:49;19.60;85.80
3186;DHT22;1604;53.700;10.252;2022-07-22T17:28:51;19.60;86.30
3186;DHT22;1604;53.700;10.252;2022-07-22T17:31:53;19.60;87.10
3186;DHT22;1604;53.700;10.252;2022-07-22T17:34:55;19.60;86.30
3186;DHT22;1604;53.700;10.252;2022-07-22T17:38:00;19.50;86.50
3186;DHT22;1604;53.700;10.252;2022-07-22T17:41:03;19.50;86.60
3186;DHT22;1604;53.700;10.252;2022-07-22T17:44:05;19.50;87.30
3186;DHT22;1604;53.700;10.252;2022-07-22T17:47:07;19.40;87.30
3186;DHT22;1604;53.700;10.252;2022-07-22T17:50:12;19.40;87.10
3186;DHT22;1604;53.700;10.252;2022-07-22T17:53:17;19.30;87.70
3186;DHT22;1604;53.700;10.252;2022-07-22T17:56:21;19.30;86.60
3186;DHT22;1604;53.700;10.252;2022-07-22T17:59:22;19.20;87.30
3186;DHT22;1604;53.700;10.252;2022-07-22T18:02:24;19.20;87.40
3186;DHT22;1604;53.700;10.252;2022-07-22T18:05:28;19.10;87.20
3186;DHT22;1604;53.700;10.252;2022-07-22T18:08:30;19.10;87.10
3186;DHT22;1604;53.700;10.252;2022-07-22T18:11:33;19.10;87.60
3186;DHT22;1604;53.700;10.252;2022-07-22T18:14:35;19.10;88.40
3186;DHT22;1604;53.700;10.252;2022-07-22T18:17:37;19.10;88.40
3186;DHT22;1604;53.700;10.252;2022-07-22T18:20:39;18.90;87.70
3186;DHT22;1604;53.700;10.252;2022-07-22T18:23:41;18.90;88.30
3186;DHT22;1604;53.700;10.252;2022-07-22T18:26:44;18.90;88.70
3186;DHT22;1604;53.700;10.252;2022-07-22T18:29:46;18.80;89.00
3186;DHT22;1604;53.700;10.252;2022-07-22T18:32:48;18.80;89.00
3186;DHT22;1604;53.700;10.252;2022-07-22T18:35:50;18.70;88.50
3186;DHT22;1604;53.700;10.252;2022-07-22T18:38:52;18.70;88.90
3186;DHT22;1604;53.700;10.252;2022-07-22T18:41:56;18.60;89.10
3186;DHT22;1604;53.700;10.252;2022-07-22T18:45:00;18.60;89.70
3186;DHT22;1604;53.700;10.252;2022-07-22T18:48:02;18.50;89.90
3186;DHT22;1604;53.700;10.252;2022-07-22T18:51:04;18.50;89.60
3186;DHT22;1604;53.700;10.252;2022-07-22T18:54:07;18.50;90.10
3186;DHT22;1604;53.700;10.252;2022-07-22T18:57:14;18.40;90.20
3186;DHT22;1604;53.700;10.252;2022-07-22T19:00:16;18.40;90.50
3186;DHT22;1604;53.700;10.252;2022-07-22T19:03:18;18.30;89.70
3186;DHT22;1604;53.700;10.252;2022-07-22T19:06:23;18.30;90.80
3186;DHT22;1604;53.700;10.252;2022-07-22T19:09:25;18.20;90.40
3186;DHT22;1604;53.700;10.252;2022-07-22T19:12:28;18.20;90.80
3186;DHT22;1604;53.700;10.252;2022-07-22T19:15:30;18.10;90.20
3186;DHT22;1604;53.700;10.252;2022-07-22T19:18:32;18.00;90.80
3186;DHT22;1604;53.700;10.252;2022-07-22T19:21:40;18.00;90.70
3186;DHT22;1604;53.700;10.252;2022-07-22T19:24:42;17.90;90.60
3186;DHT22;1604;53.700;10.252;2022-07-22T19:27:48;17.80;90.50
3186;DHT22;1604;53.700;10.252;2022-07-22T19:30:49;17.80;90.70
3186;DHT22;1604;53.700;10.252;2022-07-22T19:33:51;17.70;89.60
3186;DHT22;1604;53.700;10.252;2022-07-22T19:36:53;17.70;89.60